OCN3VL LDZA-EDDF
Flight info
| Callsign | OCN3VL |
|---|---|
| Flight time | N/A |
| Altitude | 34000 |
| Route | PODET DCT RADLY DCT SIMBA DCT AKINI T161 DEBHI DEBHI1B |
| Aircraft | A320/M-SDE3FGHIRWY/LB1 |
Departure
| Time | 2026-05-06 16:44 |
|---|---|
| Airport | Zagreb Franjo Tuđman International Airport (LDZA) |
Arrival
| Time | N/A |
|---|---|
| Airport | Frankfurt Main Airport (EDDF) |
| Time | Latitude | Longitude | Altitude | Speed | Heading |
|---|---|---|---|---|---|
| 2026-05-06 16:28 | 45.74135 | 16.07712 | 362 ft | 0 kts | 122° |
| 2026-05-06 16:31 | 45.74135 | 16.07713 | 362 ft | 0 kts | 122° |
| 2026-05-06 16:32 | 45.74135 | 16.07712 | 362 ft | 0 kts | 122° |
| 2026-05-06 16:35 | 45.74138 | 16.07706 | 365 ft | 0 kts | 121° |
| 2026-05-06 16:35 | 45.74144 | 16.07692 | 362 ft | 3 kts | 120° |
| 2026-05-06 16:35 | 45.74155 | 16.07663 | 362 ft | 3 kts | 119° |
| 2026-05-06 16:35 | 45.74166 | 16.07634 | 358 ft | 3 kts | 91° |
| 2026-05-06 16:36 | 45.74155 | 16.07608 | 362 ft | 0 kts | 46° |
| 2026-05-06 16:40 | 45.74174 | 16.07636 | 362 ft | 11 kts | 46° |
| 2026-05-06 16:40 | 45.74222 | 16.07708 | 358 ft | 8 kts | 47° |
| 2026-05-06 16:40 | 45.74280 | 16.07796 | 359 ft | 24 kts | 46° |
| 2026-05-06 16:41 | 45.74388 | 16.07891 | 364 ft | 16 kts | 339° |
| 2026-05-06 16:41 | 45.74481 | 16.07770 | 358 ft | 19 kts | 317° |
| 2026-05-06 16:41 | 45.74586 | 16.07720 | 355 ft | 16 kts | 30° |
| 2026-05-06 16:41 | 45.74657 | 16.07822 | 358 ft | 13 kts | 46° |
| 2026-05-06 16:42 | 45.74737 | 16.07942 | 362 ft | 25 kts | 47° |
| 2026-05-06 16:42 | 45.74847 | 16.08069 | 361 ft | 16 kts | 0° |
| 2026-05-06 16:42 | 45.74921 | 16.07980 | 364 ft | 12 kts | 318° |
| 2026-05-06 16:42 | 45.74965 | 16.07908 | 366 ft | 7 kts | 274° |
| 2026-05-06 16:43 | 45.74874 | 16.07760 | 360 ft | 51 kts | 226° |
| 2026-05-06 16:43 | 45.74475 | 16.07156 | 364 ft | 113 kts | 226° |
| 2026-05-06 16:43 | 45.73820 | 16.06159 | 368 ft | 160 kts | 226° |
| 2026-05-06 16:43 | 45.73018 | 16.04902 | 663 ft | 178 kts | 228° |
| 2026-05-06 16:44 | 45.72216 | 16.03548 | 1373 ft | 177 kts | 230° |
| 2026-05-06 16:44 | 45.71436 | 16.02186 | 2068 ft | 179 kts | 230° |
| 2026-05-06 16:44 | 45.70583 | 16.00774 | 2461 ft | 198 kts | 228° |
| 2026-05-06 16:44 | 45.69591 | 15.99215 | 2777 ft | 224 kts | 228° |
| 2026-05-06 16:45 | 45.68506 | 15.97504 | 3412 ft | 236 kts | 227° |
| 2026-05-06 16:45 | 45.67413 | 15.95758 | 4223 ft | 242 kts | 229° |
| 2026-05-06 16:45 | 45.66395 | 15.93801 | 5017 ft | 250 kts | 239° |
| 2026-05-06 16:45 | 45.65759 | 15.91462 | 5806 ft | 256 kts | 256° |
| 2026-05-06 16:46 | 45.65655 | 15.88910 | 6697 ft | 261 kts | 273° |
| 2026-05-06 16:46 | 45.66098 | 15.86378 | 7569 ft | 266 kts | 289° |
| 2026-05-06 16:46 | 45.67065 | 15.84096 | 8414 ft | 275 kts | 306° |
| 2026-05-06 16:46 | 45.68529 | 15.82263 | 9200 ft | 286 kts | 324° |
| 2026-05-06 16:47 | 45.70387 | 15.81113 | 9976 ft | 297 kts | 342° |
| 2026-05-06 16:47 | 45.72464 | 15.80824 | 10716 ft | 306 kts | 0° |
| 2026-05-06 16:47 | 45.74559 | 15.81482 | 11434 ft | 315 kts | 22° |
| 2026-05-06 16:47 | 45.76423 | 15.83202 | 12021 ft | 326 kts | 35° |
| 2026-05-06 16:48 | 45.78362 | 15.85053 | 12333 ft | 343 kts | 24° |
| 2026-05-06 16:48 | 45.80693 | 15.85897 | 12639 ft | 353 kts | 357° |
| 2026-05-06 16:48 | 45.83107 | 15.85218 | 12994 ft | 358 kts | 333° |
| 2026-05-06 16:48 | 45.85278 | 15.83504 | 13744 ft | 356 kts | 327° |
| 2026-05-06 16:49 | 45.87522 | 15.81949 | 14386 ft | 361 kts | 335° |
| 2026-05-06 16:49 | 45.89855 | 15.80532 | 14908 ft | 367 kts | 331° |
| 2026-05-06 16:49 | 45.92183 | 15.78937 | 15434 ft | 372 kts | 332° |
| 2026-05-06 16:49 | 45.94539 | 15.77398 | 16170 ft | 372 kts | 333° |
| 2026-05-06 16:50 | 45.96883 | 15.75951 | 16896 ft | 372 kts | 334° |
| 2026-05-06 16:50 | 45.99300 | 15.74522 | 17383 ft | 379 kts | 335° |
| 2026-05-06 16:50 | 46.01775 | 15.73110 | 17881 ft | 385 kts | 335° |
| 2026-05-06 16:50 | 46.04269 | 15.71725 | 18601 ft | 382 kts | 335° |
| 2026-05-06 16:51 | 46.06752 | 15.70291 | 19055 ft | 388 kts | 334° |
| 2026-05-06 16:51 | 46.09227 | 15.68670 | 19426 ft | 393 kts | 330° |
| 2026-05-06 16:51 | 46.11631 | 15.66797 | 19968 ft | 393 kts | 327° |
| 2026-05-06 16:51 | 46.14033 | 15.64884 | 20440 ft | 397 kts | 329° |
| 2026-05-06 16:52 | 46.16522 | 15.63098 | 20928 ft | 400 kts | 331° |
| 2026-05-06 16:52 | 46.18972 | 15.61190 | 21424 ft | 400 kts | 325° |
| 2026-05-06 16:52 | 46.21358 | 15.59075 | 21861 ft | 404 kts | 325° |
| 2026-05-06 16:52 | 46.23768 | 15.56932 | 22320 ft | 408 kts | 325° |
| 2026-05-06 16:53 | 46.26195 | 15.54785 | 22766 ft | 411 kts | 325° |
| 2026-05-06 16:53 | 46.28650 | 15.52628 | 23207 ft | 414 kts | 326° |
| 2026-05-06 16:53 | 46.31124 | 15.50464 | 23605 ft | 417 kts | 326° |
| 2026-05-06 16:53 | 46.33617 | 15.48285 | 23976 ft | 420 kts | 326° |
| 2026-05-06 16:54 | 46.36126 | 15.46096 | 24359 ft | 422 kts | 326° |
| 2026-05-06 16:54 | 46.38643 | 15.43898 | 24740 ft | 424 kts | 326° |
| 2026-05-06 16:54 | 46.41174 | 15.41680 | 25123 ft | 426 kts | 325° |
| 2026-05-06 16:54 | 46.43712 | 15.39448 | 25486 ft | 428 kts | 325° |
| 2026-05-06 16:55 | 46.46258 | 15.37205 | 25860 ft | 430 kts | 325° |
| 2026-05-06 16:55 | 46.48817 | 15.34947 | 26215 ft | 431 kts | 325° |
| 2026-05-06 16:55 | 46.51388 | 15.32678 | 26567 ft | 433 kts | 325° |
| 2026-05-06 16:55 | 46.53973 | 15.30397 | 26920 ft | 435 kts | 325° |
| 2026-05-06 16:56 | 46.56565 | 15.28107 | 27276 ft | 437 kts | 325° |
| 2026-05-06 16:56 | 46.59170 | 15.25803 | 27625 ft | 439 kts | 325° |
| 2026-05-06 16:56 | 46.61785 | 15.23491 | 27957 ft | 441 kts | 325° |
| 2026-05-06 16:56 | 46.64382 | 15.21088 | 28302 ft | 441 kts | 320° |
| 2026-05-06 16:57 | 46.66732 | 15.18225 | 28615 ft | 440 kts | 314° |
| 2026-05-06 16:57 | 46.68991 | 15.15205 | 28922 ft | 443 kts | 314° |
| 2026-05-06 16:57 | 46.71269 | 15.12164 | 29225 ft | 445 kts | 314° |
| 2026-05-06 16:57 | 46.73528 | 15.09152 | 29520 ft | 447 kts | 314° |
| 2026-05-06 16:58 | 46.75828 | 15.06089 | 29823 ft | 449 kts | 313° |
| 2026-05-06 16:58 | 46.78135 | 15.03013 | 30090 ft | 451 kts | 314° |
| 2026-05-06 16:58 | 46.80453 | 14.99918 | 30340 ft | 452 kts | 314° |
| 2026-05-06 16:58 | 46.82770 | 14.96820 | 30594 ft | 453 kts | 314° |
| 2026-05-06 16:59 | 46.85095 | 14.93705 | 30832 ft | 454 kts | 314° |
| 2026-05-06 16:59 | 46.87416 | 14.90589 | 31194 ft | 452 kts | 314° |
| 2026-05-06 16:59 | 46.89722 | 14.87487 | 31594 ft | 450 kts | 314° |
| 2026-05-06 16:59 | 46.92018 | 14.84396 | 31999 ft | 447 kts | 314° |
| 2026-05-06 17:00 | 46.94306 | 14.81314 | 32399 ft | 445 kts | 314° |
| 2026-05-06 17:00 | 46.96577 | 14.78255 | 32783 ft | 443 kts | 314° |
| 2026-05-06 17:00 | 46.98841 | 14.75206 | 33111 ft | 441 kts | 314° |
| 2026-05-06 17:00 | 47.01097 | 14.72161 | 33446 ft | 440 kts | 314° |
| 2026-05-06 17:01 | 47.03341 | 14.69123 | 33781 ft | 439 kts | 314° |
| 2026-05-06 17:01 | 47.07774 | 14.63112 | 33842 ft | 429 kts | 314° |
| 2026-05-06 17:02 | 47.12144 | 14.57166 | 33837 ft | 428 kts | 314° |
| 2026-05-06 17:02 | 47.16506 | 14.51206 | 33842 ft | 428 kts | 314° |
| 2026-05-06 17:03 | 47.20875 | 14.45236 | 33836 ft | 429 kts | 314° |
| 2026-05-06 17:03 | 47.25247 | 14.39252 | 33835 ft | 429 kts | 314° |
| 2026-05-06 17:04 | 47.29616 | 14.33257 | 33825 ft | 429 kts | 314° |
| 2026-05-06 17:04 | 47.33987 | 14.27249 | 33818 ft | 429 kts | 314° |
| 2026-05-06 17:05 | 47.38332 | 14.21260 | 33801 ft | 430 kts | 314° |
| 2026-05-06 17:05 | 47.42696 | 14.15229 | 33791 ft | 429 kts | 314° |
| 2026-05-06 17:06 | 47.47061 | 14.09184 | 33778 ft | 430 kts | 314° |
| 2026-05-06 17:06 | 47.50713 | 14.04111 | 33768 ft | 430 kts | 314° |
| 2026-05-06 17:07 | 47.55042 | 13.98086 | 33767 ft | 431 kts | 313° |
| 2026-05-06 17:07 | 47.59408 | 13.92000 | 33751 ft | 431 kts | 313° |
| 2026-05-06 17:08 | 47.63766 | 13.85902 | 33742 ft | 430 kts | 313° |
| 2026-05-06 17:08 | 47.68124 | 13.79797 | 33732 ft | 431 kts | 313° |
| 2026-05-06 17:09 | 47.72487 | 13.73679 | 33714 ft | 431 kts | 313° |
| 2026-05-06 17:09 | 47.76844 | 13.67542 | 33707 ft | 432 kts | 313° |
| 2026-05-06 17:10 | 47.81207 | 13.61380 | 33704 ft | 433 kts | 313° |
| 2026-05-06 17:10 | 47.85572 | 13.55209 | 33696 ft | 433 kts | 313° |
| 2026-05-06 17:11 | 47.89936 | 13.49029 | 33700 ft | 433 kts | 312° |
| 2026-05-06 17:11 | 47.94291 | 13.42826 | 33703 ft | 433 kts | 312° |
| 2026-05-06 17:12 | 47.98650 | 13.36611 | 33701 ft | 433 kts | 312° |
| 2026-05-06 17:12 | 48.03004 | 13.30380 | 33702 ft | 433 kts | 312° |
| 2026-05-06 17:13 | 48.07358 | 13.24145 | 33698 ft | 434 kts | 311° |
| 2026-05-06 17:13 | 48.11686 | 13.17931 | 33686 ft | 434 kts | 311° |
| 2026-05-06 17:14 | 48.16048 | 13.11660 | 33691 ft | 434 kts | 311° |
| 2026-05-06 17:14 | 48.20394 | 13.05389 | 33696 ft | 434 kts | 311° |
| 2026-05-06 17:15 | 48.24681 | 12.99021 | 33701 ft | 432 kts | 309° |
| 2026-05-06 17:15 | 48.28684 | 12.92314 | 33701 ft | 431 kts | 306° |
| 2026-05-06 17:16 | 48.32557 | 12.85506 | 33699 ft | 431 kts | 306° |
| 2026-05-06 17:16 | 48.36485 | 12.78699 | 33705 ft | 432 kts | 307° |
| 2026-05-06 17:17 | 48.40478 | 12.71913 | 33706 ft | 432 kts | 307° |
| 2026-05-06 17:17 | 48.44469 | 12.65143 | 33713 ft | 432 kts | 307° |
| 2026-05-06 17:18 | 48.48453 | 12.58337 | 33719 ft | 432 kts | 306° |
| 2026-05-06 17:18 | 48.52422 | 12.51512 | 33706 ft | 433 kts | 306° |
| 2026-05-06 17:19 | 48.56388 | 12.44670 | 33719 ft | 433 kts | 306° |
| 2026-05-06 17:19 | 48.60339 | 12.37835 | 33721 ft | 434 kts | 306° |
| 2026-05-06 17:20 | 48.64318 | 12.30945 | 33736 ft | 435 kts | 306° |
| 2026-05-06 17:20 | 48.68305 | 12.24036 | 33736 ft | 436 kts | 306° |
| 2026-05-06 17:21 | 48.72257 | 12.17065 | 33743 ft | 434 kts | 301° |
| 2026-05-06 17:21 | 48.75059 | 12.09150 | 33741 ft | 422 kts | 283° |
| 2026-05-06 17:22 | 48.76265 | 12.00607 | 33750 ft | 416 kts | 274° |
| 2026-05-06 17:22 | 48.77198 | 11.91934 | 33754 ft | 417 kts | 274° |
| 2026-05-06 17:23 | 48.78132 | 11.83228 | 33759 ft | 418 kts | 274° |
| 2026-05-06 17:23 | 48.79062 | 11.74522 | 33754 ft | 419 kts | 274° |
| 2026-05-06 17:24 | 48.79980 | 11.65788 | 33755 ft | 419 kts | 274° |
| 2026-05-06 17:24 | 48.80895 | 11.57035 | 33750 ft | 420 kts | 274° |
| 2026-05-06 17:25 | 48.81800 | 11.48283 | 33756 ft | 420 kts | 274° |
| 2026-05-06 17:25 | 48.82696 | 11.39514 | 33756 ft | 420 kts | 274° |
| 2026-05-06 17:26 | 48.83594 | 11.30734 | 33648 ft | 421 kts | 275° |
| 2026-05-06 17:26 | 48.84342 | 11.26418 | 33008 ft | 426 kts | 285° |
| 2026-05-06 17:26 | 48.85571 | 11.22309 | 32408 ft | 430 kts | 295° |
| 2026-05-06 17:26 | 48.87226 | 11.18573 | 31843 ft | 434 kts | 304° |
| 2026-05-06 17:27 | 48.89300 | 11.15231 | 31294 ft | 437 kts | 314° |
| 2026-05-06 17:27 | 48.91551 | 11.12127 | 30745 ft | 435 kts | 314° |
| 2026-05-06 17:27 | 48.93779 | 11.09029 | 30231 ft | 433 kts | 314° |
| 2026-05-06 17:27 | 48.95988 | 11.05939 | 29708 ft | 431 kts | 314° |
| 2026-05-06 17:28 | 48.98185 | 11.02854 | 29177 ft | 428 kts | 314° |
| 2026-05-06 17:28 | 49.00362 | 10.99793 | 28690 ft | 424 kts | 314° |
| 2026-05-06 17:28 | 49.02524 | 10.96754 | 28183 ft | 421 kts | 314° |
| 2026-05-06 17:28 | 49.04666 | 10.93737 | 27699 ft | 418 kts | 314° |
| 2026-05-06 17:29 | 49.06789 | 10.90746 | 27230 ft | 414 kts | 314° |
| 2026-05-06 17:29 | 49.08899 | 10.87769 | 26760 ft | 410 kts | 314° |
| 2026-05-06 17:29 | 49.10987 | 10.84820 | 26301 ft | 407 kts | 314° |
| 2026-05-06 17:29 | 49.13057 | 10.81890 | 25842 ft | 404 kts | 314° |
| 2026-05-06 17:30 | 49.15110 | 10.78982 | 25385 ft | 400 kts | 314° |
| 2026-05-06 17:30 | 49.17141 | 10.76096 | 24934 ft | 397 kts | 314° |
| 2026-05-06 17:30 | 49.19157 | 10.73231 | 24472 ft | 394 kts | 314° |
| 2026-05-06 17:30 | 49.21133 | 10.70349 | 24034 ft | 391 kts | 312° |
| 2026-05-06 17:31 | 49.23038 | 10.67414 | 23813 ft | 388 kts | 311° |
| 2026-05-06 17:31 | 49.24912 | 10.64431 | 23802 ft | 388 kts | 310° |
| 2026-05-06 17:31 | 49.26778 | 10.61427 | 23815 ft | 389 kts | 310° |
| 2026-05-06 17:31 | 49.28622 | 10.58460 | 23813 ft | 389 kts | 310° |
| 2026-05-06 17:32 | 49.30495 | 10.55465 | 23815 ft | 389 kts | 311° |
| 2026-05-06 17:32 | 49.32376 | 10.52474 | 23812 ft | 390 kts | 311° |
| 2026-05-06 17:32 | 49.34262 | 10.49485 | 23815 ft | 390 kts | 311° |
| 2026-05-06 17:32 | 49.36106 | 10.46448 | 23817 ft | 388 kts | 306° |
| 2026-05-06 17:33 | 49.37690 | 10.43107 | 23807 ft | 387 kts | 302° |
| 2026-05-06 17:33 | 49.39233 | 10.39730 | 23802 ft | 386 kts | 302° |
| 2026-05-06 17:33 | 49.40775 | 10.36350 | 23805 ft | 386 kts | 302° |
| 2026-05-06 17:33 | 49.42316 | 10.32969 | 23804 ft | 386 kts | 302° |
| 2026-05-06 17:34 | 49.43857 | 10.29580 | 23807 ft | 386 kts | 302° |
| 2026-05-06 17:34 | 49.45398 | 10.26191 | 23802 ft | 386 kts | 302° |
| 2026-05-06 17:34 | 49.46934 | 10.22813 | 23806 ft | 386 kts | 302° |
| 2026-05-06 17:34 | 49.48471 | 10.19432 | 23805 ft | 386 kts | 302° |
| 2026-05-06 17:35 | 49.50007 | 10.16047 | 23808 ft | 385 kts | 302° |
| 2026-05-06 17:35 | 49.51519 | 10.12706 | 23786 ft | 384 kts | 302° |
| 2026-05-06 17:35 | 49.53040 | 10.09344 | 23379 ft | 381 kts | 302° |
| 2026-05-06 17:36 | 49.56045 | 10.02689 | 22417 ft | 375 kts | 302° |
| 2026-05-06 17:36 | 49.57526 | 9.99404 | 21967 ft | 372 kts | 302° |
| 2026-05-06 17:36 | 49.59000 | 9.96131 | 21532 ft | 369 kts | 302° |
| 2026-05-06 17:36 | 49.60459 | 9.92890 | 21091 ft | 367 kts | 302° |
| 2026-05-06 17:37 | 49.61909 | 9.89664 | 20673 ft | 364 kts | 302° |
| 2026-05-06 17:37 | 49.63341 | 9.86469 | 20247 ft | 361 kts | 302° |
| 2026-05-06 17:37 | 49.64768 | 9.83282 | 19848 ft | 359 kts | 302° |
| 2026-05-06 17:37 | 49.66179 | 9.80129 | 19444 ft | 357 kts | 302° |
| 2026-05-06 17:38 | 49.67587 | 9.76985 | 19048 ft | 354 kts | 302° |
| 2026-05-06 17:38 | 49.68982 | 9.73861 | 18656 ft | 352 kts | 302° |
| 2026-05-06 17:38 | 49.70364 | 9.70753 | 18267 ft | 350 kts | 302° |
| 2026-05-06 17:38 | 49.71735 | 9.67655 | 17845 ft | 348 kts | 302° |
| 2026-05-06 17:39 | 49.73095 | 9.64585 | 17415 ft | 346 kts | 302° |
| 2026-05-06 17:39 | 49.74450 | 9.61529 | 17008 ft | 343 kts | 302° |
| 2026-05-06 17:39 | 49.75797 | 9.58489 | 16618 ft | 341 kts | 302° |
| 2026-05-06 17:39 | 49.77134 | 9.55470 | 16235 ft | 339 kts | 302° |
| 2026-05-06 17:40 | 49.78453 | 9.52489 | 15694 ft | 334 kts | 302° |
| 2026-05-06 17:40 | 49.79761 | 9.49533 | 15027 ft | 331 kts | 302° |
| 2026-05-06 17:40 | 49.81050 | 9.46612 | 14382 ft | 328 kts | 302° |
| 2026-05-06 17:40 | 49.82330 | 9.43705 | 13747 ft | 325 kts | 302° |
| 2026-05-06 17:41 | 49.83595 | 9.40829 | 13120 ft | 323 kts | 302° |
| 2026-05-06 17:41 | 49.84855 | 9.37962 | 12770 ft | 320 kts | 302° |
| 2026-05-06 17:41 | 49.86030 | 9.35057 | 12409 ft | 316 kts | 294° |
| 2026-05-06 17:41 | 49.86789 | 9.31934 | 12054 ft | 312 kts | 284° |
| 2026-05-06 17:42 | 49.87400 | 9.28707 | 11695 ft | 311 kts | 284° |
| 2026-05-06 17:42 | 49.88012 | 9.25509 | 11331 ft | 309 kts | 284° |
| 2026-05-06 17:42 | 49.88709 | 9.22368 | 10976 ft | 308 kts | 296° |
| 2026-05-06 17:42 | 49.90079 | 9.19781 | 10615 ft | 310 kts | 321° |
| 2026-05-06 17:43 | 49.91987 | 9.18338 | 10253 ft | 312 kts | 346° |
| 2026-05-06 17:43 | 49.94106 | 9.17898 | 10106 ft | 303 kts | 353° |
| 2026-05-06 17:43 | 49.96189 | 9.17619 | 9871 ft | 298 kts | 354° |
| 2026-05-06 17:43 | 49.98250 | 9.17362 | 9559 ft | 296 kts | 354° |
| 2026-05-06 17:44 | 50.00296 | 9.17111 | 9197 ft | 294 kts | 354° |
| 2026-05-06 17:44 | 50.02325 | 9.16866 | 8835 ft | 292 kts | 354° |
| 2026-05-06 17:44 | 50.04350 | 9.16627 | 8483 ft | 290 kts | 354° |
| 2026-05-06 17:44 | 50.06358 | 9.16393 | 8114 ft | 289 kts | 354° |
| 2026-05-06 17:45 | 50.08356 | 9.16189 | 7821 ft | 286 kts | 354° |
| 2026-05-06 17:45 | 50.10335 | 9.16004 | 7474 ft | 283 kts | 353° |
| 2026-05-06 17:45 | 50.12216 | 9.15321 | 7107 ft | 275 kts | 329° |
| 2026-05-06 17:45 | 50.13671 | 9.13489 | 6735 ft | 268 kts | 307° |
| 2026-05-06 17:46 | 50.14639 | 9.11055 | 6370 ft | 263 kts | 290° |
| 2026-05-06 17:46 | 50.15083 | 9.08332 | 5991 ft | 258 kts | 273° |
| 2026-05-06 17:46 | 50.14991 | 9.05566 | 5576 ft | 256 kts | 257° |
| 2026-05-06 17:46 | 50.14439 | 9.02930 | 5172 ft | 255 kts | 249° |
| 2026-05-06 17:47 | 50.13833 | 9.00336 | 4763 ft | 254 kts | 250° |
| 2026-05-06 17:47 | 50.13230 | 8.97751 | 4365 ft | 253 kts | 250° |
| 2026-05-06 17:47 | 50.12633 | 8.95198 | 4035 ft | 251 kts | 250° |
| 2026-05-06 17:47 | 50.12031 | 8.92631 | 4002 ft | 252 kts | 250° |
| 2026-05-06 17:48 | 50.11435 | 8.90089 | 4008 ft | 253 kts | 250° |
| 2026-05-06 17:48 | 50.10833 | 8.87526 | 4007 ft | 253 kts | 250° |
| 2026-05-06 17:48 | 50.10223 | 8.84929 | 3886 ft | 254 kts | 250° |
| 2026-05-06 17:48 | 50.09619 | 8.82365 | 3593 ft | 251 kts | 250° |
| 2026-05-06 17:49 | 50.09018 | 8.79815 | 3267 ft | 251 kts | 250° |
| 2026-05-06 17:49 | 50.08417 | 8.77268 | 2927 ft | 249 kts | 251° |
| 2026-05-06 17:49 | 50.07818 | 8.74732 | 2588 ft | 249 kts | 251° |
| 2026-05-06 17:49 | 50.07221 | 8.72208 | 2258 ft | 247 kts | 252° |
| 2026-05-06 17:50 | 50.06827 | 8.70546 | 2134 ft | 249 kts | 252° |
| 2026-05-06 17:50 | 50.06226 | 8.68007 | 2848 ft | 250 kts | 251° |
| 2026-05-06 17:50 | 50.05827 | 8.66327 | 3592 ft | 248 kts | 250° |